IGO1057 VECC-VTBS
Flight info
| Callsign | IGO1057 |
|---|---|
| Flight time | 2h 14m |
| Altitude | 35000 |
| Route | DOPID2C DOPID P646 TARED DCT WILLA WILLA1C |
| Aircraft | A320/M-SDE3FGHIRWY/LB1 |
Departure
| Time | 2026-05-05 13:42 |
|---|---|
| Airport | Netaji Subhash Chandra Bose International Airport (VECC) |
Arrival
| Time | 2026-05-05 15:56 |
|---|---|
| Airport | Suvarnabhumi Airport (VTBS) |
| Time | Latitude | Longitude | Altitude | Speed | Heading |
|---|---|---|---|---|---|
| 2026-05-05 13:19 | 22.65827 | 88.44352 | 29 ft | 0 kts | 272° |
| 2026-05-05 13:35 | 22.65826 | 88.44367 | 30 ft | 4 kts | 286° |
| 2026-05-05 13:36 | 22.65815 | 88.44392 | 30 ft | 4 kts | 309° |
| 2026-05-05 13:36 | 22.65806 | 88.44404 | 27 ft | 1 kts | 310° |
| 2026-05-05 13:36 | 22.65805 | 88.44405 | 26 ft | 0 kts | 310° |
| 2026-05-05 13:38 | 22.65806 | 88.44404 | 26 ft | 0 kts | 310° |
| 2026-05-05 13:38 | 22.65824 | 88.44390 | 29 ft | 7 kts | 337° |
| 2026-05-05 13:38 | 22.65897 | 88.44399 | 26 ft | 14 kts | 19° |
| 2026-05-05 13:38 | 22.66007 | 88.44449 | 25 ft | 21 kts | 9° |
| 2026-05-05 13:39 | 22.66173 | 88.44472 | 25 ft | 27 kts | 7° |
| 2026-05-05 13:39 | 22.66384 | 88.44496 | 27 ft | 33 kts | 6° |
| 2026-05-05 13:39 | 22.66625 | 88.44534 | 25 ft | 36 kts | 10° |
| 2026-05-05 13:39 | 22.66870 | 88.44579 | 26 ft | 36 kts | 6° |
| 2026-05-05 13:40 | 22.67121 | 88.44607 | 26 ft | 36 kts | 6° |
| 2026-05-05 13:40 | 22.67270 | 88.44674 | 29 ft | 20 kts | 59° |
| 2026-05-05 13:40 | 22.67333 | 88.44815 | 27 ft | 21 kts | 85° |
| 2026-05-05 13:40 | 22.67312 | 88.44955 | 28 ft | 17 kts | 126° |
| 2026-05-05 13:41 | 22.67196 | 88.44977 | 27 ft | 19 kts | 189° |
| 2026-05-05 13:41 | 22.66942 | 88.44950 | 29 ft | 72 kts | 186° |
| 2026-05-05 13:41 | 22.66177 | 88.44863 | 28 ft | 145 kts | 186° |
| 2026-05-05 13:41 | 22.65007 | 88.44723 | 294 ft | 181 kts | 186° |
| 2026-05-05 13:42 | 22.63738 | 88.44518 | 1176 ft | 185 kts | 185° |
| 2026-05-05 13:42 | 22.62461 | 88.44831 | 1903 ft | 203 kts | 145° |
| 2026-05-05 13:42 | 22.61417 | 88.45953 | 2275 ft | 221 kts | 128° |
| 2026-05-05 13:42 | 22.60482 | 88.47387 | 2518 ft | 246 kts | 123° |
| 2026-05-05 13:43 | 22.59499 | 88.49002 | 2969 ft | 265 kts | 124° |
| 2026-05-05 13:43 | 22.58456 | 88.50679 | 3689 ft | 271 kts | 125° |
| 2026-05-05 13:43 | 22.57363 | 88.52363 | 4498 ft | 276 kts | 126° |
| 2026-05-05 13:43 | 22.56225 | 88.54052 | 5285 ft | 279 kts | 127° |
| 2026-05-05 13:44 | 22.55049 | 88.55755 | 5723 ft | 285 kts | 127° |
| 2026-05-05 13:44 | 22.53852 | 88.57459 | 5844 ft | 285 kts | 128° |
| 2026-05-05 13:44 | 22.52643 | 88.59159 | 5866 ft | 285 kts | 128° |
| 2026-05-05 13:44 | 22.51432 | 88.60851 | 5866 ft | 284 kts | 128° |
| 2026-05-05 13:45 | 22.50223 | 88.62542 | 5871 ft | 284 kts | 128° |
| 2026-05-05 13:45 | 22.49015 | 88.64237 | 5872 ft | 284 kts | 128° |
| 2026-05-05 13:45 | 22.47809 | 88.65931 | 5871 ft | 285 kts | 128° |
| 2026-05-05 13:45 | 22.46597 | 88.67623 | 5872 ft | 284 kts | 130° |
| 2026-05-05 13:46 | 22.45151 | 88.69065 | 5874 ft | 284 kts | 147° |
| 2026-05-05 13:46 | 22.43376 | 88.70033 | 6469 ft | 287 kts | 157° |
| 2026-05-05 13:46 | 22.41553 | 88.70917 | 7253 ft | 288 kts | 156° |
| 2026-05-05 13:46 | 22.39722 | 88.71827 | 7981 ft | 291 kts | 156° |
| 2026-05-05 13:47 | 22.37877 | 88.72754 | 8701 ft | 294 kts | 156° |
| 2026-05-05 13:47 | 22.36007 | 88.73693 | 9413 ft | 298 kts | 156° |
| 2026-05-05 13:47 | 22.34117 | 88.74641 | 10072 ft | 302 kts | 156° |
| 2026-05-05 13:47 | 22.32144 | 88.75623 | 10277 ft | 323 kts | 156° |
| 2026-05-05 13:48 | 22.30032 | 88.76670 | 10409 ft | 345 kts | 156° |
| 2026-05-05 13:48 | 22.27803 | 88.77774 | 10683 ft | 358 kts | 156° |
| 2026-05-05 13:48 | 22.26293 | 88.78521 | 11010 ft | 362 kts | 156° |
| 2026-05-05 13:48 | 22.23992 | 88.79654 | 11565 ft | 365 kts | 156° |
| 2026-05-05 13:49 | 22.21672 | 88.80794 | 12132 ft | 368 kts | 156° |
| 2026-05-05 13:49 | 22.19332 | 88.81946 | 12686 ft | 371 kts | 156° |
| 2026-05-05 13:49 | 22.16972 | 88.83108 | 13244 ft | 374 kts | 156° |
| 2026-05-05 13:49 | 22.14595 | 88.84280 | 13794 ft | 377 kts | 156° |
| 2026-05-05 13:50 | 22.12196 | 88.85463 | 14295 ft | 380 kts | 156° |
| 2026-05-05 13:50 | 22.09781 | 88.86655 | 14776 ft | 384 kts | 157° |
| 2026-05-05 13:50 | 22.07342 | 88.87858 | 15264 ft | 387 kts | 157° |
| 2026-05-05 13:50 | 22.04889 | 88.89067 | 15748 ft | 389 kts | 157° |
| 2026-05-05 13:51 | 22.02417 | 88.90287 | 16227 ft | 392 kts | 158° |
| 2026-05-05 13:51 | 21.99930 | 88.91516 | 16699 ft | 395 kts | 158° |
| 2026-05-05 13:51 | 21.97425 | 88.92751 | 17178 ft | 397 kts | 158° |
| 2026-05-05 13:51 | 21.94902 | 88.93994 | 17651 ft | 400 kts | 158° |
| 2026-05-05 13:52 | 21.92363 | 88.95244 | 18129 ft | 403 kts | 158° |
| 2026-05-05 13:52 | 21.89804 | 88.96501 | 18542 ft | 405 kts | 159° |
| 2026-05-05 13:52 | 21.87232 | 88.97763 | 18965 ft | 407 kts | 159° |
| 2026-05-05 13:52 | 21.84649 | 88.99031 | 19392 ft | 409 kts | 159° |
| 2026-05-05 13:53 | 21.82054 | 89.00304 | 19824 ft | 411 kts | 159° |
| 2026-05-05 13:53 | 21.79449 | 89.01582 | 20243 ft | 413 kts | 159° |
| 2026-05-05 13:53 | 21.76831 | 89.02866 | 20656 ft | 415 kts | 159° |
| 2026-05-05 13:53 | 21.74199 | 89.04155 | 21074 ft | 417 kts | 159° |
| 2026-05-05 13:54 | 21.71556 | 89.05449 | 21468 ft | 419 kts | 159° |
| 2026-05-05 13:54 | 21.68900 | 89.06749 | 21857 ft | 420 kts | 159° |
| 2026-05-05 13:54 | 21.66231 | 89.08052 | 22237 ft | 422 kts | 159° |
| 2026-05-05 13:54 | 21.63550 | 89.09362 | 22615 ft | 424 kts | 159° |
| 2026-05-05 13:55 | 21.60862 | 89.10679 | 22981 ft | 426 kts | 160° |
| 2026-05-05 13:55 | 21.58159 | 89.12002 | 23340 ft | 428 kts | 160° |
| 2026-05-05 13:55 | 21.55445 | 89.13330 | 23641 ft | 429 kts | 160° |
| 2026-05-05 13:55 | 21.52721 | 89.14663 | 23921 ft | 432 kts | 160° |
| 2026-05-05 13:56 | 21.49981 | 89.16003 | 24195 ft | 434 kts | 160° |
| 2026-05-05 13:56 | 21.47227 | 89.17347 | 24467 ft | 436 kts | 160° |
| 2026-05-05 13:56 | 21.44460 | 89.18697 | 24724 ft | 438 kts | 160° |
| 2026-05-05 13:56 | 21.41676 | 89.20052 | 24980 ft | 440 kts | 160° |
| 2026-05-05 13:57 | 21.38880 | 89.21412 | 25237 ft | 443 kts | 160° |
| 2026-05-05 13:57 | 21.36069 | 89.22780 | 25493 ft | 445 kts | 160° |
| 2026-05-05 13:57 | 21.33241 | 89.24147 | 25755 ft | 446 kts | 162° |
| 2026-05-05 13:57 | 21.30311 | 89.25184 | 26012 ft | 442 kts | 171° |
| 2026-05-05 13:58 | 21.27290 | 89.25703 | 26262 ft | 439 kts | 180° |
| 2026-05-05 13:58 | 21.24254 | 89.25690 | 26502 ft | 435 kts | 189° |
| 2026-05-05 13:58 | 21.21257 | 89.25245 | 26749 ft | 435 kts | 193° |
| 2026-05-05 13:58 | 21.18257 | 89.24749 | 27009 ft | 437 kts | 193° |
| 2026-05-05 13:59 | 21.12216 | 89.23760 | 27477 ft | 441 kts | 192° |
| 2026-05-05 13:59 | 21.09176 | 89.23264 | 27793 ft | 441 kts | 193° |
| 2026-05-05 14:00 | 21.03115 | 89.22286 | 28532 ft | 440 kts | 193° |
| 2026-05-05 14:00 | 21.00091 | 89.21799 | 28910 ft | 439 kts | 192° |
| 2026-05-05 14:00 | 20.97029 | 89.21602 | 29272 ft | 446 kts | 181° |
| 2026-05-05 14:00 | 20.93943 | 89.22151 | 29630 ft | 454 kts | 168° |
| 2026-05-05 14:01 | 20.91010 | 89.23481 | 29978 ft | 464 kts | 154° |
| 2026-05-05 14:01 | 20.88406 | 89.25549 | 30285 ft | 472 kts | 140° |
| 2026-05-05 14:01 | 20.86297 | 89.28199 | 30602 ft | 477 kts | 130° |
| 2026-05-05 14:01 | 20.84320 | 89.31038 | 30923 ft | 476 kts | 130° |
| 2026-05-05 14:02 | 20.82345 | 89.33879 | 31248 ft | 476 kts | 130° |
| 2026-05-05 14:02 | 20.80369 | 89.36714 | 31568 ft | 475 kts | 130° |
| 2026-05-05 14:02 | 20.78394 | 89.39538 | 31900 ft | 475 kts | 131° |
| 2026-05-05 14:02 | 20.76417 | 89.42360 | 32232 ft | 474 kts | 131° |
| 2026-05-05 14:03 | 20.74439 | 89.45182 | 32567 ft | 474 kts | 131° |
| 2026-05-05 14:03 | 20.72464 | 89.47998 | 32899 ft | 474 kts | 131° |
| 2026-05-05 14:03 | 20.70487 | 89.50810 | 33220 ft | 473 kts | 131° |
| 2026-05-05 14:03 | 20.68510 | 89.53621 | 33535 ft | 473 kts | 131° |
| 2026-05-05 14:04 | 20.66535 | 89.56426 | 33841 ft | 473 kts | 131° |
| 2026-05-05 14:04 | 20.64560 | 89.59230 | 34107 ft | 472 kts | 131° |
| 2026-05-05 14:04 | 20.62588 | 89.62034 | 34366 ft | 472 kts | 131° |
| 2026-05-05 14:04 | 20.60621 | 89.64833 | 34638 ft | 471 kts | 131° |
| 2026-05-05 14:05 | 20.58655 | 89.67631 | 34823 ft | 472 kts | 131° |
| 2026-05-05 14:05 | 20.56680 | 89.70442 | 34872 ft | 476 kts | 131° |
| 2026-05-05 14:05 | 20.52655 | 89.76150 | 34872 ft | 486 kts | 131° |
| 2026-05-05 14:06 | 20.48583 | 89.81928 | 34875 ft | 488 kts | 131° |
| 2026-05-05 14:06 | 20.44492 | 89.87705 | 34866 ft | 488 kts | 131° |
| 2026-05-05 14:07 | 20.40400 | 89.93488 | 34871 ft | 489 kts | 131° |
| 2026-05-05 14:07 | 20.36306 | 89.99272 | 34874 ft | 489 kts | 131° |
| 2026-05-05 14:08 | 20.32215 | 90.05062 | 34872 ft | 489 kts | 131° |
| 2026-05-05 14:08 | 20.28118 | 90.10851 | 34873 ft | 489 kts | 131° |
| 2026-05-05 14:09 | 20.24010 | 90.16628 | 34878 ft | 489 kts | 131° |
| 2026-05-05 14:09 | 20.19902 | 90.22409 | 34879 ft | 489 kts | 131° |
| 2026-05-05 14:10 | 20.15796 | 90.28191 | 34880 ft | 489 kts | 131° |
| 2026-05-05 14:10 | 20.11686 | 90.33965 | 34869 ft | 490 kts | 131° |
| 2026-05-05 14:11 | 20.07570 | 90.39737 | 34868 ft | 490 kts | 130° |
| 2026-05-05 14:11 | 20.03475 | 90.45474 | 34868 ft | 490 kts | 130° |
| 2026-05-05 14:12 | 19.99356 | 90.51256 | 34871 ft | 491 kts | 130° |
| 2026-05-05 14:12 | 19.95225 | 90.57032 | 34877 ft | 491 kts | 131° |
| 2026-05-05 14:13 | 19.91096 | 90.62805 | 34879 ft | 491 kts | 130° |
| 2026-05-05 14:13 | 19.86965 | 90.68580 | 34880 ft | 491 kts | 131° |
| 2026-05-05 14:14 | 19.82823 | 90.74348 | 34880 ft | 491 kts | 131° |
| 2026-05-05 14:14 | 19.78685 | 90.80112 | 34864 ft | 491 kts | 130° |
| 2026-05-05 14:15 | 19.74544 | 90.85892 | 34862 ft | 492 kts | 130° |
| 2026-05-05 14:15 | 19.70397 | 90.91673 | 34865 ft | 493 kts | 130° |
| 2026-05-05 14:16 | 19.66236 | 90.97455 | 34869 ft | 493 kts | 130° |
| 2026-05-05 14:16 | 19.62062 | 91.03229 | 34871 ft | 493 kts | 130° |
| 2026-05-05 14:17 | 19.57886 | 91.09000 | 34874 ft | 493 kts | 130° |
| 2026-05-05 14:17 | 19.53720 | 91.14775 | 34873 ft | 493 kts | 130° |
| 2026-05-05 14:18 | 19.49556 | 91.20567 | 34875 ft | 494 kts | 130° |
| 2026-05-05 14:18 | 19.45389 | 91.26345 | 34866 ft | 494 kts | 130° |
| 2026-05-05 14:19 | 19.41205 | 91.32110 | 34872 ft | 493 kts | 130° |
| 2026-05-05 14:19 | 19.37020 | 91.37871 | 34873 ft | 493 kts | 130° |
| 2026-05-05 14:20 | 19.32837 | 91.43638 | 34874 ft | 493 kts | 130° |
| 2026-05-05 14:20 | 19.28659 | 91.49402 | 34875 ft | 493 kts | 130° |
| 2026-05-05 14:21 | 19.24479 | 91.55166 | 34878 ft | 493 kts | 130° |
| 2026-05-05 14:21 | 19.20296 | 91.60920 | 34880 ft | 493 kts | 130° |
| 2026-05-05 14:22 | 19.16141 | 91.66631 | 34880 ft | 493 kts | 130° |
| 2026-05-05 14:22 | 19.11954 | 91.72375 | 34880 ft | 493 kts | 130° |
| 2026-05-05 14:23 | 19.07772 | 91.78112 | 34881 ft | 492 kts | 130° |
| 2026-05-05 14:23 | 19.03590 | 91.83846 | 34884 ft | 492 kts | 130° |
| 2026-05-05 14:24 | 18.99405 | 91.89564 | 34883 ft | 492 kts | 130° |
| 2026-05-05 14:24 | 18.95224 | 91.95278 | 34883 ft | 491 kts | 130° |
| 2026-05-05 14:25 | 18.91040 | 92.00986 | 34882 ft | 491 kts | 130° |
| 2026-05-05 14:25 | 18.86828 | 92.06666 | 34881 ft | 491 kts | 131° |
| 2026-05-05 14:26 | 18.82590 | 92.12321 | 34880 ft | 491 kts | 131° |
| 2026-05-05 14:26 | 18.78352 | 92.17974 | 34877 ft | 491 kts | 131° |
| 2026-05-05 14:27 | 18.74116 | 92.23628 | 34878 ft | 491 kts | 131° |
| 2026-05-05 14:27 | 18.69886 | 92.29288 | 34883 ft | 491 kts | 131° |
| 2026-05-05 14:28 | 18.65658 | 92.34945 | 34884 ft | 491 kts | 131° |
| 2026-05-05 14:28 | 18.61427 | 92.40596 | 34882 ft | 491 kts | 131° |
| 2026-05-05 14:29 | 18.57189 | 92.46234 | 34877 ft | 491 kts | 131° |
| 2026-05-05 14:29 | 18.52946 | 92.51863 | 34876 ft | 490 kts | 131° |
| 2026-05-05 14:30 | 18.48710 | 92.57495 | 34875 ft | 490 kts | 131° |
| 2026-05-05 14:30 | 18.44475 | 92.63131 | 34875 ft | 490 kts | 131° |
| 2026-05-05 14:31 | 18.40239 | 92.68758 | 34885 ft | 490 kts | 131° |
| 2026-05-05 14:31 | 18.36014 | 92.74378 | 34887 ft | 489 kts | 131° |
| 2026-05-05 14:32 | 18.31791 | 92.79981 | 34883 ft | 488 kts | 131° |
| 2026-05-05 14:32 | 18.28276 | 92.84624 | 34881 ft | 488 kts | 131° |
| 2026-05-05 14:33 | 18.24048 | 92.90201 | 34879 ft | 487 kts | 131° |
| 2026-05-05 14:33 | 18.19832 | 92.95790 | 34877 ft | 487 kts | 131° |
| 2026-05-05 14:34 | 18.14938 | 93.02281 | 34876 ft | 487 kts | 131° |
| 2026-05-05 14:34 | 18.10710 | 93.07851 | 34874 ft | 487 kts | 131° |
| 2026-05-05 14:35 | 18.07197 | 93.12475 | 34875 ft | 487 kts | 131° |
| 2026-05-05 14:35 | 18.02976 | 93.18043 | 34871 ft | 487 kts | 131° |
| 2026-05-05 14:36 | 17.98754 | 93.23599 | 34873 ft | 486 kts | 131° |
| 2026-05-05 14:36 | 17.94532 | 93.29149 | 34874 ft | 486 kts | 131° |
| 2026-05-05 14:37 | 17.90310 | 93.34698 | 34874 ft | 486 kts | 131° |
| 2026-05-05 14:37 | 17.86089 | 93.40243 | 34871 ft | 486 kts | 131° |
| 2026-05-05 14:38 | 17.81864 | 93.45780 | 34871 ft | 486 kts | 131° |
| 2026-05-05 14:38 | 17.77643 | 93.51319 | 34869 ft | 486 kts | 131° |
| 2026-05-05 14:39 | 17.73421 | 93.56855 | 34868 ft | 486 kts | 131° |
| 2026-05-05 14:39 | 17.69193 | 93.62387 | 34862 ft | 486 kts | 131° |
| 2026-05-05 14:40 | 17.64963 | 93.67907 | 34865 ft | 486 kts | 131° |
| 2026-05-05 14:40 | 17.60736 | 93.73431 | 34865 ft | 485 kts | 131° |
| 2026-05-05 14:41 | 17.56512 | 93.78951 | 34869 ft | 485 kts | 131° |
| 2026-05-05 14:41 | 17.52286 | 93.84463 | 34867 ft | 485 kts | 130° |
| 2026-05-05 14:42 | 17.48065 | 93.89966 | 34871 ft | 484 kts | 130° |
| 2026-05-05 14:42 | 17.43851 | 93.95462 | 34868 ft | 484 kts | 130° |
| 2026-05-05 14:43 | 17.39630 | 94.00951 | 34867 ft | 484 kts | 130° |
| 2026-05-05 14:43 | 17.35408 | 94.06431 | 34861 ft | 483 kts | 130° |
| 2026-05-05 14:44 | 17.31187 | 94.11909 | 34861 ft | 483 kts | 130° |
| 2026-05-05 14:44 | 17.26969 | 94.17390 | 34863 ft | 483 kts | 130° |
| 2026-05-05 14:45 | 17.22752 | 94.22868 | 34863 ft | 483 kts | 130° |
| 2026-05-05 14:45 | 17.18539 | 94.28335 | 34867 ft | 483 kts | 130° |
| 2026-05-05 14:46 | 17.14316 | 94.33800 | 34867 ft | 483 kts | 130° |
| 2026-05-05 14:46 | 17.10094 | 94.39251 | 34866 ft | 482 kts | 130° |
| 2026-05-05 14:47 | 17.05876 | 94.44704 | 34864 ft | 482 kts | 130° |
| 2026-05-05 14:47 | 17.01658 | 94.50156 | 34858 ft | 482 kts | 130° |
| 2026-05-05 14:48 | 16.97434 | 94.55605 | 34855 ft | 482 kts | 130° |
| 2026-05-05 14:48 | 16.93215 | 94.61052 | 34850 ft | 482 kts | 130° |
| 2026-05-05 14:49 | 16.88999 | 94.66497 | 34853 ft | 482 kts | 130° |
| 2026-05-05 14:49 | 16.84805 | 94.71891 | 34855 ft | 481 kts | 130° |
| 2026-05-05 14:50 | 16.80716 | 94.77419 | 34845 ft | 482 kts | 122° |
| 2026-05-05 14:50 | 16.77594 | 94.83607 | 34846 ft | 482 kts | 117° |
| 2026-05-05 14:51 | 16.74546 | 94.89836 | 34833 ft | 482 kts | 117° |
| 2026-05-05 14:51 | 16.71484 | 94.96061 | 34833 ft | 482 kts | 117° |
| 2026-05-05 14:52 | 16.68415 | 95.02276 | 34835 ft | 482 kts | 117° |
| 2026-05-05 14:52 | 16.65342 | 95.08493 | 34829 ft | 482 kts | 117° |
| 2026-05-05 14:53 | 16.62277 | 95.14704 | 34825 ft | 482 kts | 117° |
| 2026-05-05 14:53 | 16.59215 | 95.20917 | 34831 ft | 482 kts | 117° |
| 2026-05-05 14:54 | 16.56152 | 95.27126 | 34833 ft | 481 kts | 117° |
| 2026-05-05 14:54 | 16.53084 | 95.33325 | 34831 ft | 481 kts | 117° |
| 2026-05-05 14:55 | 16.50008 | 95.39522 | 34830 ft | 481 kts | 117° |
| 2026-05-05 14:55 | 16.46935 | 95.45720 | 34833 ft | 481 kts | 117° |
| 2026-05-05 14:56 | 16.43860 | 95.51916 | 34837 ft | 481 kts | 117° |
| 2026-05-05 14:56 | 16.40782 | 95.58105 | 34838 ft | 481 kts | 117° |
| 2026-05-05 14:57 | 16.37699 | 95.64296 | 34840 ft | 481 kts | 117° |
| 2026-05-05 14:57 | 16.34646 | 95.70446 | 34841 ft | 481 kts | 117° |
| 2026-05-05 14:58 | 16.31570 | 95.76636 | 34843 ft | 481 kts | 118° |
| 2026-05-05 14:58 | 16.28484 | 95.82816 | 34847 ft | 481 kts | 118° |
| 2026-05-05 14:59 | 16.25401 | 95.88991 | 34850 ft | 481 kts | 118° |
| 2026-05-05 14:59 | 16.22325 | 95.95159 | 34851 ft | 480 kts | 118° |
| 2026-05-05 15:00 | 16.19744 | 96.00322 | 34852 ft | 480 kts | 118° |
| 2026-05-05 15:00 | 16.16164 | 96.07473 | 34849 ft | 479 kts | 118° |
| 2026-05-05 15:01 | 16.13087 | 96.13621 | 34852 ft | 479 kts | 118° |
| 2026-05-05 15:01 | 16.10008 | 96.19769 | 34857 ft | 479 kts | 118° |
| 2026-05-05 15:02 | 16.06933 | 96.25909 | 34855 ft | 479 kts | 118° |
| 2026-05-05 15:02 | 16.03852 | 96.32045 | 34849 ft | 479 kts | 118° |
| 2026-05-05 15:03 | 16.00767 | 96.38178 | 34849 ft | 479 kts | 118° |
| 2026-05-05 15:03 | 15.97686 | 96.44311 | 34846 ft | 479 kts | 118° |
| 2026-05-05 15:04 | 15.94603 | 96.50442 | 34854 ft | 479 kts | 118° |
| 2026-05-05 15:04 | 15.91516 | 96.56570 | 34848 ft | 479 kts | 118° |
| 2026-05-05 15:05 | 15.86878 | 96.65757 | 34851 ft | 479 kts | 118° |
| 2026-05-05 15:06 | 15.83812 | 96.71838 | 34853 ft | 478 kts | 118° |
| 2026-05-05 15:06 | 15.80701 | 96.77991 | 34853 ft | 478 kts | 118° |
| 2026-05-05 15:07 | 15.77631 | 96.84063 | 34851 ft | 478 kts | 118° |
| 2026-05-05 15:07 | 15.74542 | 96.90175 | 34848 ft | 478 kts | 117° |
| 2026-05-05 15:08 | 15.71448 | 96.96283 | 34848 ft | 478 kts | 118° |
| 2026-05-05 15:08 | 15.68351 | 97.02387 | 34844 ft | 478 kts | 118° |
| 2026-05-05 15:09 | 15.65253 | 97.08491 | 34845 ft | 478 kts | 118° |
| 2026-05-05 15:09 | 15.62154 | 97.14597 | 34839 ft | 478 kts | 118° |
| 2026-05-05 15:10 | 15.59054 | 97.20696 | 34843 ft | 478 kts | 118° |
| 2026-05-05 15:10 | 15.55947 | 97.26795 | 34843 ft | 478 kts | 118° |
| 2026-05-05 15:11 | 15.52838 | 97.32888 | 34840 ft | 478 kts | 118° |
| 2026-05-05 15:11 | 15.49733 | 97.38986 | 34842 ft | 478 kts | 117° |
| 2026-05-05 15:12 | 15.46623 | 97.45079 | 34839 ft | 478 kts | 118° |
| 2026-05-05 15:12 | 15.43519 | 97.51172 | 34841 ft | 478 kts | 117° |
| 2026-05-05 15:13 | 15.40524 | 97.57322 | 34841 ft | 478 kts | 116° |
| 2026-05-05 15:13 | 15.37598 | 97.63508 | 34834 ft | 478 kts | 116° |
| 2026-05-05 15:14 | 15.34644 | 97.69680 | 34841 ft | 478 kts | 116° |
| 2026-05-05 15:14 | 15.31664 | 97.75836 | 34843 ft | 478 kts | 116° |
| 2026-05-05 15:15 | 15.28680 | 97.81992 | 34848 ft | 478 kts | 116° |
| 2026-05-05 15:15 | 15.25705 | 97.88150 | 34846 ft | 478 kts | 116° |
| 2026-05-05 15:16 | 15.22720 | 97.94298 | 34850 ft | 478 kts | 116° |
| 2026-05-05 15:16 | 15.19731 | 98.00446 | 34848 ft | 478 kts | 116° |
| 2026-05-05 15:17 | 15.16747 | 98.06595 | 34855 ft | 478 kts | 116° |
| 2026-05-05 15:17 | 15.13767 | 98.12742 | 34854 ft | 478 kts | 116° |
| 2026-05-05 15:18 | 15.10786 | 98.18886 | 34858 ft | 478 kts | 116° |
| 2026-05-05 15:18 | 15.07782 | 98.25020 | 34862 ft | 478 kts | 116° |
| 2026-05-05 15:19 | 15.04734 | 98.31123 | 34862 ft | 478 kts | 117° |
| 2026-05-05 15:19 | 15.02191 | 98.36195 | 34862 ft | 478 kts | 117° |
| 2026-05-05 15:20 | 14.98656 | 98.43290 | 34869 ft | 477 kts | 117° |
| 2026-05-05 15:20 | 14.95614 | 98.49393 | 34873 ft | 477 kts | 117° |
| 2026-05-05 15:21 | 14.92574 | 98.55492 | 34876 ft | 477 kts | 117° |
| 2026-05-05 15:21 | 14.89530 | 98.61589 | 34874 ft | 477 kts | 117° |
| 2026-05-05 15:22 | 14.87002 | 98.66654 | 34875 ft | 477 kts | 117° |
| 2026-05-05 15:22 | 14.83958 | 98.72746 | 34877 ft | 477 kts | 117° |
| 2026-05-05 15:23 | 14.80896 | 98.78871 | 34876 ft | 476 kts | 117° |
| 2026-05-05 15:23 | 14.77851 | 98.84948 | 34880 ft | 476 kts | 117° |
| 2026-05-05 15:24 | 14.74826 | 98.90978 | 34866 ft | 476 kts | 117° |
| 2026-05-05 15:24 | 14.71782 | 98.97046 | 34866 ft | 476 kts | 117° |
| 2026-05-05 15:25 | 14.68740 | 99.03111 | 34861 ft | 476 kts | 117° |
| 2026-05-05 15:25 | 14.65699 | 99.09181 | 34852 ft | 476 kts | 117° |
| 2026-05-05 15:26 | 14.62650 | 99.15234 | 34860 ft | 475 kts | 117° |
| 2026-05-05 15:26 | 14.59598 | 99.21281 | 34853 ft | 474 kts | 117° |
| 2026-05-05 15:27 | 14.56557 | 99.27322 | 34851 ft | 474 kts | 117° |
| 2026-05-05 15:27 | 14.53517 | 99.33359 | 34844 ft | 474 kts | 117° |
| 2026-05-05 15:28 | 14.50474 | 99.39392 | 34836 ft | 474 kts | 117° |
| 2026-05-05 15:28 | 14.47431 | 99.45424 | 34496 ft | 475 kts | 117° |
| 2026-05-05 15:28 | 14.45888 | 99.48490 | 33350 ft | 487 kts | 116° |
| 2026-05-05 15:29 | 14.44583 | 99.51737 | 32358 ft | 492 kts | 107° |
| 2026-05-05 15:29 | 14.43777 | 99.55177 | 31390 ft | 496 kts | 98° |
| 2026-05-05 15:29 | 14.43475 | 99.58724 | 30528 ft | 498 kts | 93° |
| 2026-05-05 15:29 | 14.43261 | 99.62289 | 29858 ft | 496 kts | 94° |
| 2026-05-05 15:30 | 14.43042 | 99.65823 | 29147 ft | 492 kts | 94° |
| 2026-05-05 15:30 | 14.42820 | 99.69325 | 28535 ft | 486 kts | 94° |
| 2026-05-05 15:30 | 14.42600 | 99.72785 | 27876 ft | 482 kts | 94° |
| 2026-05-05 15:30 | 14.42381 | 99.76212 | 27236 ft | 477 kts | 94° |
| 2026-05-05 15:31 | 14.42162 | 99.79613 | 26606 ft | 472 kts | 93° |
| 2026-05-05 15:31 | 14.41948 | 99.82977 | 25981 ft | 468 kts | 93° |
| 2026-05-05 15:31 | 14.41735 | 99.86313 | 25361 ft | 464 kts | 93° |
| 2026-05-05 15:31 | 14.41523 | 99.89619 | 24742 ft | 461 kts | 93° |
| 2026-05-05 15:32 | 14.41314 | 99.92905 | 24142 ft | 457 kts | 93° |
| 2026-05-05 15:32 | 14.41107 | 99.96166 | 23554 ft | 454 kts | 93° |
| 2026-05-05 15:32 | 14.40904 | 99.99373 | 23348 ft | 440 kts | 93° |
| 2026-05-05 15:32 | 14.40706 | 100.02428 | 23153 ft | 427 kts | 93° |
| 2026-05-05 15:33 | 14.40479 | 100.05455 | 22737 ft | 421 kts | 97° |
| 2026-05-05 15:33 | 14.39875 | 100.08388 | 22277 ft | 417 kts | 104° |
| 2026-05-05 15:33 | 14.39149 | 100.11268 | 21811 ft | 413 kts | 104° |
| 2026-05-05 15:33 | 14.38431 | 100.14122 | 21341 ft | 410 kts | 104° |
| 2026-05-05 15:34 | 14.37722 | 100.16954 | 20904 ft | 406 kts | 104° |
| 2026-05-05 15:34 | 14.37024 | 100.19752 | 20602 ft | 400 kts | 104° |
| 2026-05-05 15:34 | 14.36335 | 100.22521 | 20367 ft | 398 kts | 104° |
| 2026-05-05 15:34 | 14.35648 | 100.25280 | 20116 ft | 396 kts | 104° |
| 2026-05-05 15:35 | 14.34962 | 100.28024 | 19896 ft | 394 kts | 104° |
| 2026-05-05 15:35 | 14.34276 | 100.30755 | 19659 ft | 392 kts | 104° |
| 2026-05-05 15:35 | 14.33595 | 100.33472 | 19421 ft | 391 kts | 104° |
| 2026-05-05 15:35 | 14.32918 | 100.36175 | 19190 ft | 388 kts | 104° |
| 2026-05-05 15:36 | 14.32244 | 100.38863 | 18957 ft | 387 kts | 104° |
| 2026-05-05 15:36 | 14.31573 | 100.41543 | 18730 ft | 385 kts | 104° |
| 2026-05-05 15:36 | 14.30902 | 100.44212 | 18502 ft | 383 kts | 104° |
| 2026-05-05 15:36 | 14.30232 | 100.46861 | 18271 ft | 382 kts | 104° |
| 2026-05-05 15:37 | 14.29564 | 100.49506 | 18033 ft | 380 kts | 104° |
| 2026-05-05 15:37 | 14.28901 | 100.52138 | 17788 ft | 379 kts | 104° |
| 2026-05-05 15:37 | 14.28243 | 100.54761 | 17559 ft | 377 kts | 104° |
| 2026-05-05 15:37 | 14.27588 | 100.57370 | 17325 ft | 376 kts | 104° |
| 2026-05-05 15:38 | 14.26935 | 100.59974 | 17093 ft | 375 kts | 104° |
| 2026-05-05 15:38 | 14.26284 | 100.62570 | 16859 ft | 373 kts | 104° |
| 2026-05-05 15:38 | 14.25634 | 100.65152 | 16627 ft | 372 kts | 104° |
| 2026-05-05 15:38 | 14.24985 | 100.67726 | 16392 ft | 370 kts | 104° |
| 2026-05-05 15:39 | 14.24210 | 100.70244 | 16159 ft | 368 kts | 115° |
| 2026-05-05 15:39 | 14.22827 | 100.72449 | 15939 ft | 367 kts | 132° |
| 2026-05-05 15:39 | 14.20905 | 100.74150 | 15664 ft | 364 kts | 148° |
| 2026-05-05 15:39 | 14.18664 | 100.75184 | 15459 ft | 342 kts | 165° |
| 2026-05-05 15:40 | 14.16371 | 100.75597 | 15025 ft | 330 kts | 174° |
| 2026-05-05 15:40 | 14.14106 | 100.75850 | 14462 ft | 325 kts | 174° |
| 2026-05-05 15:40 | 14.11882 | 100.75899 | 14214 ft | 317 kts | 186° |
| 2026-05-05 15:40 | 14.09712 | 100.75469 | 14026 ft | 318 kts | 194° |
| 2026-05-05 15:41 | 14.07576 | 100.74902 | 13726 ft | 316 kts | 194° |
| 2026-05-05 15:41 | 14.05451 | 100.74338 | 13383 ft | 315 kts | 194° |
| 2026-05-05 15:41 | 14.03334 | 100.73778 | 13068 ft | 313 kts | 194° |
| 2026-05-05 15:41 | 14.01234 | 100.73223 | 12760 ft | 311 kts | 194° |
| 2026-05-05 15:42 | 13.99169 | 100.72677 | 12459 ft | 310 kts | 194° |
| 2026-05-05 15:42 | 13.97060 | 100.72120 | 12150 ft | 308 kts | 194° |
| 2026-05-05 15:42 | 13.95018 | 100.71582 | 11852 ft | 306 kts | 193° |
| 2026-05-05 15:42 | 13.92967 | 100.71040 | 11554 ft | 304 kts | 193° |
| 2026-05-05 15:43 | 13.90926 | 100.70500 | 11257 ft | 302 kts | 193° |
| 2026-05-05 15:43 | 13.88896 | 100.69963 | 10961 ft | 300 kts | 194° |
| 2026-05-05 15:43 | 13.86876 | 100.69429 | 10668 ft | 299 kts | 194° |
| 2026-05-05 15:43 | 13.84867 | 100.68896 | 10374 ft | 297 kts | 194° |
| 2026-05-05 15:44 | 13.82870 | 100.68366 | 10085 ft | 296 kts | 194° |
| 2026-05-05 15:44 | 13.80877 | 100.67839 | 9850 ft | 294 kts | 194° |
| 2026-05-05 15:44 | 13.78891 | 100.67314 | 9625 ft | 294 kts | 193° |
| 2026-05-05 15:44 | 13.76913 | 100.66789 | 9333 ft | 293 kts | 193° |
| 2026-05-05 15:45 | 13.74958 | 100.66270 | 9138 ft | 286 kts | 194° |
| 2026-05-05 15:45 | 13.73057 | 100.65767 | 9013 ft | 278 kts | 193° |
| 2026-05-05 15:45 | 13.71214 | 100.65281 | 8888 ft | 270 kts | 193° |
| 2026-05-05 15:45 | 13.69421 | 100.64809 | 8754 ft | 263 kts | 193° |
| 2026-05-05 15:46 | 13.67659 | 100.64345 | 8512 ft | 260 kts | 193° |
| 2026-05-05 15:46 | 13.65912 | 100.63884 | 8268 ft | 258 kts | 193° |
| 2026-05-05 15:46 | 13.64180 | 100.63427 | 8039 ft | 256 kts | 193° |
| 2026-05-05 15:46 | 13.62464 | 100.62975 | 7811 ft | 254 kts | 193° |
| 2026-05-05 15:47 | 13.60749 | 100.62523 | 7586 ft | 254 kts | 193° |
| 2026-05-05 15:47 | 13.59616 | 100.62223 | 7436 ft | 254 kts | 194° |
| 2026-05-05 15:47 | 13.57170 | 100.61579 | 7163 ft | 303 kts | 194° |
| 2026-05-05 15:47 | 13.55073 | 100.61028 | 6964 ft | 312 kts | 194° |
| 2026-05-05 15:48 | 13.53029 | 100.60488 | 6807 ft | 293 kts | 193° |
| 2026-05-05 15:48 | 13.51130 | 100.59984 | 6700 ft | 272 kts | 194° |
| 2026-05-05 15:48 | 13.49347 | 100.59511 | 6485 ft | 259 kts | 194° |
| 2026-05-05 15:48 | 13.47617 | 100.59053 | 6112 ft | 257 kts | 193° |
| 2026-05-05 15:49 | 13.45890 | 100.58621 | 5826 ft | 254 kts | 187° |
| 2026-05-05 15:49 | 13.44178 | 100.58817 | 5558 ft | 248 kts | 153° |
| 2026-05-05 15:49 | 13.42878 | 100.59912 | 5253 ft | 243 kts | 122° |
| 2026-05-05 15:49 | 13.42159 | 100.61527 | 4863 ft | 258 kts | 102° |
| 2026-05-05 15:50 | 13.42042 | 100.63400 | 4775 ft | 267 kts | 82° |
| 2026-05-05 15:50 | 13.42580 | 100.65220 | 4657 ft | 268 kts | 62° |
| 2026-05-05 15:50 | 13.43707 | 100.66722 | 4447 ft | 266 kts | 41° |
| 2026-05-05 15:50 | 13.45279 | 100.67703 | 4151 ft | 263 kts | 20° |
| 2026-05-05 15:51 | 13.47008 | 100.68187 | 3839 ft | 252 kts | 15° |
| 2026-05-05 15:51 | 13.48673 | 100.68620 | 3525 ft | 242 kts | 16° |
| 2026-05-05 15:51 | 13.50270 | 100.69038 | 3235 ft | 231 kts | 14° |
| 2026-05-05 15:51 | 13.51796 | 100.69438 | 2952 ft | 222 kts | 15° |
| 2026-05-05 15:52 | 13.53261 | 100.69823 | 2671 ft | 213 kts | 15° |
| 2026-05-05 15:52 | 13.54656 | 100.70190 | 2413 ft | 202 kts | 14° |
| 2026-05-05 15:52 | 13.55998 | 100.70542 | 2150 ft | 197 kts | 16° |
| 2026-05-05 15:52 | 13.57291 | 100.70882 | 1897 ft | 186 kts | 15° |
| 2026-05-05 15:53 | 13.58511 | 100.71214 | 1660 ft | 175 kts | 16° |
| 2026-05-05 15:53 | 13.59636 | 100.71552 | 1482 ft | 165 kts | 17° |
| 2026-05-05 15:53 | 13.60702 | 100.71906 | 1222 ft | 157 kts | 19° |
| 2026-05-05 15:53 | 13.61719 | 100.72216 | 1013 ft | 154 kts | 14° |
| 2026-05-05 15:54 | 13.62768 | 100.72457 | 839 ft | 153 kts | 9° |
| 2026-05-05 15:54 | 13.63802 | 100.72624 | 588 ft | 150 kts | 13° |
| 2026-05-05 15:54 | 13.64809 | 100.72855 | 461 ft | 150 kts | 16° |
| 2026-05-05 15:54 | 13.65809 | 100.73128 | 284 ft | 149 kts | 15° |
| 2026-05-05 15:55 | 13.66799 | 100.73390 | 143 ft | 149 kts | 17° |
| 2026-05-05 15:55 | 13.67818 | 100.73652 | 19 ft | 145 kts | 15° |
| 2026-05-05 15:55 | 13.68684 | 100.73875 | 11 ft | 111 kts | 14° |
| 2026-05-05 15:55 | 13.69255 | 100.74026 | 7 ft | 53 kts | 14° |
| 2026-05-05 15:56 | 13.69491 | 100.74104 | 5 ft | 35 kts | 28° |
| 2026-05-05 15:56 | 13.69651 | 100.74242 | 7 ft | 19 kts | 49° |
| 2026-05-05 15:56 | 13.69745 | 100.74337 | 7 ft | 20 kts | 30° |
| 2026-05-05 15:56 | 13.69871 | 100.74401 | 9 ft | 20 kts | 62° |
| 2026-05-05 15:57 | 13.69851 | 100.74546 | 9 ft | 22 kts | 105° |
| 2026-05-05 15:57 | 13.69783 | 100.74653 | 8 ft | 17 kts | 175° |
| 2026-05-05 15:57 | 13.69660 | 100.74623 | 8 ft | 19 kts | 195° |
| 2026-05-05 15:57 | 13.69536 | 100.74589 | 8 ft | 15 kts | 192° |
| 2026-05-05 15:58 | 13.69458 | 100.74592 | 8 ft | 11 kts | 125° |
| 2026-05-05 15:58 | 13.69441 | 100.74669 | 8 ft | 7 kts | 103° |
| 2026-05-05 15:58 | 13.69440 | 100.74671 | 8 ft | 0 kts | 103° |